Create Custom Reports and Graphics: Custom Report

Scotts Valley

Current Conditions

1/20/21 6:15 PM (-08:00)
Updated Every 15 Minutes
Temp 44.2 °F   3.4
Daily Max Temp 65.5 °F   2.6
Daily Min Temp 22.0 °F   24.4
Daily Rain 0.00 In
RH 3 %   0
Dew Pt -32.0 °F   2.3
Wet Bulb 29.7 °F   2.0
Wind Dir SW | 216 °
Wind Spd 0.1 mph   1.8
Wind Gust 1.0 mph   2.4
Leaf Wet 0.0 mins
BatVolt 13.2 V   0.0

Today & Yesterday

Midnight to Midnight

1/20/21 6:15 PM (-08:00)
Updated Every 15 Minutes
Daily Max Temp 65.5 °F   2.6
Daily Min Temp 22.0 °F   24.4
Daily Max Wind 8.0 mph   23.4
Time of Max Wind 1608
Max Wind Dir WNW | 289 °
Daily Leaf Wet Hrs 0.0 hrs   0.0
Daily Rain 0.00 In
Yesterday's Max Temp 62.9 °F
Yesterday’s Min Temp 29.0 °F
Yesterday's Max Wind 31.4 mph
Leaf Wet Hrs Yest 0.0 Hours
Yesterday's Rainfall 0.00 In

Scotts Valley

Rainfall Report

1/20/21 6:15 PM (-08:00)
Updated Every 15 Minutes
Latest Rain 0.00 In
Daily Rain 0.00 In
Yesterday's Rainfall 0.00 In
Monthly Rain 1.50 In
Seasonal Rainfall 5.29 In

Last 48 Hours

Scotts Valley

Hourly Data | America/Los_Angeles
as of 1/20/21 6:28 PM PST
Date & Time Temp (°F) RH (%) Dew Pt (°F) Wet Bulb (°F) Wind Dir (°) Wind Spd (mph) Wind Gust (mph) Leaf Wet (mins) Latest Rain (In) Daily Rain (In) Daily Max Temp (°F) Daily Min Temp (°F) Daily Leaf Wet Hrs (hrs)
1/20/21 - 1800 50.8 3 -27.5 33.6 W | 259 0.6 2.7 0.0 0.00 0.00 65.5 22.0 0.0
1/20/21 - 1700 61.1 3 -20.5 39.1 W | 265 2.5 8.0 0.0 0.00 0.00 65.5 22.0 0.0
1/20/21 - 1600 64.5 3 -18.1 40.8 WSW | 254 2.6 6.9 0.0 0.00 0.00 65.5 22.0 0.0
1/20/21 - 1500 64.0 3 -18.5 40.5 S | 181 2.4 6.3 0.0 0.00 0.00 65.3 22.0 0.0
1/20/21 - 1400 61.8 3 -20.0 39.4 ESE | 113 1.6 4.6 0.0 0.00 0.00 64.3 22.0 0.0
1/20/21 - 1300 57.9 3 -22.7 37.4 NE | 52 1.6 5.3 0.0 0.00 0.00 60.3 22.0 0.0
1/20/21 - 1200 54.0 3 -25.3 35.4 NE | 54 1.9 5.0 0.0 0.00 0.00 56.2 22.0 0.0
1/20/21 - 1100 50.8 3 -27.5 33.6 E | 93 1.6 4.2 0.0 0.00 0.00 52.8 22.0 0.0
1/20/21 - 1000 41.5 3 -33.9 28.0 ENE | 67 0.6 2.9 0.0 0.00 0.00 47.6 22.0 0.0
1/20/21 - 0900 28.3 3 -43.0 19.3 SSW | 200 0.1 1.4 0.0 0.00 0.00 35.1 22.0 0.0
1/20/21 - 0800 22.5 3 -47.1 15.1 SSE | 155 0.3 1.5 0.0 0.00 0.00 29.5 22.0 0.0
1/20/21 - 0700 23.1 3 -46.7 15.6 SE | 136 0.1 1.3 0.0 0.00 0.00 29.5 22.2 0.0
1/20/21 - 0600 23.9 3 -46.2 16.1 S | 171 0.5 2.0 0.0 0.00 0.00 29.5 23.3 0.0
1/20/21 - 0500 25.0 3 -45.4 16.9 SE | 140 0.6 2.7 0.0 0.00 0.00 29.5 24.6 0.0
1/20/21 - 0400 25.8 3 -44.8 17.5 SSE | 147 0.4 2.4 0.0 0.00 0.00 29.5 25.2 0.0
1/20/21 - 0300 26.8 3 -44.1 18.2 S | 177 0.3 1.9 0.0 0.00 0.00 29.5 26.1 0.0
1/20/21 - 0200 27.7 3 -43.5 18.8 SSW | 202 0.5 2.5 0.0 0.00 0.00 29.5 27.1 0.0
1/20/21 - 0100 28.8 3 -42.7 19.6 SSE | 161 0.4 2.2 0.0 0.00 0.00 29.5 27.7 0.0
1/20/21 - 0000 29.5 3 -42.2 20.2 SSE | 168 0.5 2.3 0.0 0.00 0.00 62.9 29.0 0.0
1/19/21 - 2300 31.0 3 -41.2 21.2 NE | 39 0.5 3.2 0.0 0.00 0.00 62.9 30.0 0.0
1/19/21 - 2200 32.4 3 -40.2 22.2 SE | 133 1.1 3.9 0.0 0.00 0.00 62.9 31.9 0.0
1/19/21 - 2100 35.3 3 -38.2 24.1 SSE | 167 0.8 3.7 0.0 0.00 0.00 62.9 33.2 0.0
1/19/21 - 2000 38.1 3 -36.2 26.0 SW | 225 1.2 4.5 0.0 0.00 0.00 62.9 36.0 0.0
1/19/21 - 1900 44.7 3 -31.7 30.0 SW | 236 1.7 4.3 0.0 0.00 0.00 62.9 41.5 0.0
1/19/21 - 1800 54.1 3 -25.2 35.4 NNW | 343 2.6 12.4 0.0 0.00 0.00 62.9 47.9 0.0
1/19/21 - 1700 59.2 3 -21.8 38.1 NE | 53 5.8 13.2 0.0 0.00 0.00 62.9 47.9 0.0
1/19/21 - 1600 61.8 3 -20.0 39.4 ENE | 67 5.4 15.6 0.0 0.00 0.00 62.9 47.9 0.0
1/19/21 - 1500 62.1 3 -19.8 39.6 ENE | 64 5.9 19.4 0.0 0.00 0.00 62.9 47.9 0.0
1/19/21 - 1400 61.9 3 -19.9 39.5 NE | 50 7.6 25.4 0.0 0.00 0.00 62.8 47.9 0.0
1/19/21 - 1300 60.4 3 -21.0 38.7 NE | 56 11.8 24.9 0.0 0.00 0.00 61.2 47.9 0.0
1/19/21 - 1200 59.0 3 -21.9 38.0 ENE | 71 10.8 24.0 0.0 0.00 0.00 60.1 47.9 0.0
1/19/21 - 1100 57.5 3 -22.9 37.2 E | 80 9.2 25.1 0.0 0.00 0.00 58.5 47.9 0.0
1/19/21 - 1000 55.3 3 -24.4 36.1 ENE | 73 6.4 14.0 0.0 0.00 0.00 56.5 47.9 0.0
1/19/21 - 0900 51.6 3 -27.0 34.0 ENE | 78 5.9 14.8 0.0 0.00 0.00 56.5 47.9 0.0
1/19/21 - 0800 48.6 3 -29.0 32.4 ENE | 64 7.1 17.1 0.0 0.00 0.00 56.5 47.9 0.0
1/19/21 - 0700 49.5 3 -28.4 32.9 NE | 49 10.8 23.3 0.0 0.00 0.00 56.5 48.7 0.0
1/19/21 - 0600 49.7 3 -28.3 33.0 NE | 47 13.2 28.5 0.0 0.00 0.00 56.5 49.0 0.0
1/19/21 - 0500 50.1 3 -28.0 33.2 NE | 38 15.1 28.5 0.0 0.00 0.00 56.5 49.5 0.0
1/19/21 - 0400 50.6 3 -27.6 33.5 NE | 46 11.1 24.5 0.0 0.00 0.00 56.5 49.9 0.0
1/19/21 - 0300 51.6 3 -27.0 34.1 NE | 38 14.2 30.2 0.0 0.00 0.00 56.5 50.6 0.0
1/19/21 - 0200 52.8 3 -26.1 34.7 NE | 34 15.7 31.4 0.0 0.00 0.00 56.5 52.1 0.0
1/19/21 - 0100 54.8 3 -24.7 35.8 NE | 40 14.0 26.8 0.0 0.00 0.00 56.5 53.4 0.0
1/19/21 - 0000 55.5 3 -24.3 36.2 NNE | 23 7.7 23.0 0.0 0.00 0.00 76.3 35.5 5.8
1/18/21 - 2300 56.1 3 -23.9 36.5 NNE | 31 4.7 12.1 0.0 0.00 0.00 76.3 35.5 5.8
1/18/21 - 2200 53.5 3 -25.7 34.9 N | 354 5.4 14.8 0.0 0.00 0.00 76.3 35.5 5.8
1/18/21 - 2100 45.0 3 -31.5 30.2 WSW | 255 2.0 8.1 0.0 0.00 0.00 76.3 35.5 5.8
1/18/21 - 2000 44.3 3 -32.0 29.8 SW | 233 1.6 6.7 0.0 0.00 0.00 76.3 35.5 5.8
1/18/21 - 1900 53.0 3 -26.0 34.8 NNW | 336 1.8 5.9 0.0 0.00 0.00 76.3 35.5 5.8
1/18/21 - 1800 63.5 3 -18.9 40.3 NE | 35 3.5 9.2 0.0 0.00 0.00 76.3 35.5 5.8
Max 64.5 3 -18.1 40.8 - 15.7 31.4 0.0 0.00 0.00 76.3 53.4 5.8
Avg 47.2 3 -30.0 31.0 - 4.6 11.5 0.0 0.00 - - - -
Min 22.5 3 -47.1 15.1 - 0.1 1.3 0.0 0.00 0.00 29.5 22.0 0.0
Total - - - - - - - - 0.00 - - - -

Last 30 Days

Scotts Valley

Daily Data | America/Los_Angeles
as of 1/20/21 6:28 PM PST
Date Daily Max Temp (°F) Time of Max Temp Daily Min Temp (°F) Time of Min Temp Daily Rain (In) Storm Total (In) Monthly Rain (In) Seasonal Rainfall (In) Wind Spd (mph) Daily Max Wind (mph) Time of Max Wind Max Wind Dir (°) Dew Pt (°F) Max RH (%) Min RH (%) Hrs <= 32F (hrs) Hrs <= 28F (hrs) Chilling <=45F (hrs) Chill Hrs 32-45F (hrs) Utah Chilling (Units) Chilling <=45F Seas (hrs) Chill Hrs 32-45 Seas (hrs) Utah Chilling Seas (Units) GDDs (DL) GDDs (Mx/Mn) Hrs 70-85F (hrs) Hrs > 95F (hrs) Degree Hrs (hrs) Bat Volt Min Day (V)
1/19/21 62.9 1403 29.0 2356 0.00 - 1.50 5.29 7.4 31.4 0146 NNE | 27 -28.0 3 3 2.0 0.0 5.5 3.6 0.0 1,093 610 378 3.9 0.0 0.00 0.00 0.0 12.5
1/18/21 76.3 1430 35.5 0506 0.00 - 1.50 5.29 2.9 23.0 2359 NE | 49 -23.3 6 3 0.0 0.0 8.9 8.9 0.0 1,088 607 378 8.8 5.9 6.26 0.00 56.6 12.6
1/17/21 78.2 1544 31.5 0731 0.00 - 1.50 5.29 0.8 5.3 1527 SE | 125 -24.6 6 3 0.9 0.0 11.0 10.1 5.0 1,079 598 378 6.6 4.8 4.12 0.00 46.5 12.5
1/16/21 73.8 1509 34.8 0722 0.00 - 1.50 5.29 1.0 9.8 1522 NNW | 336 -25.0 6 3 0.0 0.0 10.9 10.9 5.0 1,068 588 374 5.7 4.3 2.35 0.00 23.6 12.6
1/15/21 66.8 1502 31.4 0755 0.00 - 1.50 5.29 0.7 8.0 1316 E | 84 -25.3 7 3 0.4 0.0 9.4 9.0 3.5 1,057 577 370 4.1 0.0 0.00 0.00 0.6 12.6
1/14/21 67.3 1536 36.6 2348 0.01 - 1.50 5.29 1.0 5.8 1406 SW | 214 -24.3 8 3 0.0 0.0 5.1 5.1 4.5 1,048 568 367 2.2 1.9 0.00 0.00 0.8 12.6
1/13/21 66.1 1343 40.7 2151 0.03 - 1.49 5.28 0.8 8.0 1404 NE | 50 -14.9 14 3 0.0 0.0 2.9 2.9 5.5 1,043 563 364 3.5 3.4 0.00 0.00 0.0 12.5
1/12/21 50.5 1413 37.0 0146 0.05 - 1.46 5.25 0.5 3.4 2319 NNW | 348 -7.6 18 3 0.0 0.0 9.4 9.4 17.5 1,040 560 359 0.0 0.0 0.00 0.00 0.0 12.6
1/11/21 56.6 1443 30.0 0331 0.00 - 1.41 5.20 1.1 7.6 1129 NE | 38 -0.8 21 11 2.4 0.0 19.5 17.0 8.5 1,030 550 342 0.3 0.0 0.00 0.00 0.0 12.6
1/10/21 51.1 1457 30.0 0231 0.05 - 1.41 5.20 0.8 8.2 1058 ESE | 105 -5.4 25 3 3.0 0.0 16.7 13.7 0.0 1,011 533 334 0.1 0.0 0.00 0.00 0.0 12.6
1/9/21 61.3 1459 24.7 0718 0.00 0.28 1.36 5.15 1.0 7.1 1402 ESE | 114 -14.3 100 3 8.8 6.6 17.1 8.4 0.0 994 520 318 1.5 0.0 0.00 0.00 0.0 12.5
1/8/21 57.1 1439 29.3 2359 0.20 0.28 1.36 5.15 1.6 15.3 1332 N | 6 -20.7 100 3 2.5 0.0 14.4 11.9 0.0 977 511 314 0.9 0.0 0.00 0.00 0.0 12.5
1/7/21 53.6 1453 40.6 0711 0.08 0.23 1.16 4.95 0.9 12.8 2236 WNW | 301 -31.7 32 3 0.0 0.0 18.3 18.3 22.0 963 499 314 0.2 0.0 0.00 0.00 0.0 12.5
1/6/21 45.0 1354 28.7 0618 0.23 0.85 1.08 4.87 0.7 8.3 1109 ENE | 75 -36.3 3 3 6.6 0.0 - 17.4 15.0 944 481 292 0.0 0.0 0.00 0.00 0.0 12.6
1/5/21 52.4 1535 28.8 0329 0.01 0.85 0.85 4.64 1.0 6.6 1430 ESE | 120 -35.7 3 3 7.2 0.0 18.6 11.4 13.0 920 464 278 0.1 0.0 0.00 0.00 0.0 12.6
1/4/21 51.2 1050 32.2 2338 0.70 0.84 0.84 4.63 3.2 23.3 1411 W | 262 -31.2 3 3 0.0 0.0 7.1 7.1 0.0 902 452 266 0.1 0.0 0.00 0.00 0.0 12.6
1/3/21 55.3 1404 41.6 0034 0.03 0.14 0.14 3.93 0.9 7.4 1408 SE | 130 -30.5 3 3 0.0 0.0 13.3 13.3 7.5 894 445 266 0.6 0.0 0.00 0.00 0.0 12.6
1/2/21 47.4 1456 41.4 2317 0.04 0.11 0.11 3.90 1.0 7.4 0802 SE | 124 -31.7 3 3 0.0 0.0 16.1 16.1 24.0 881 432 260 0.0 0.0 0.00 0.00 0.0 12.6
1/1/21 57.8 1509 26.0 0714 0.07 0.07 0.07 3.86 1.1 11.9 1511 WSW | 240 -34.9 3 3 9.0 4.2 16.9 7.9 7.5 865 416 237 0.8 0.0 0.00 0.00 0.0 12.6
12/31/20 55.7 1453 28.8 2342 0.00 0.10 2.87 3.79 1.5 11.4 0009 NNW | 339 -34.7 3 3 4.3 0.0 17.6 13.3 0.0 848 408 230 0.5 0.0 0.00 0.00 0.0 12.6
12/30/20 59.9 1357 21.5 0211 0.10 0.10 2.87 3.79 1.3 11.4 2242 NW | 323 -35.2 3 3 9.4 7.4 14.2 4.8 8.0 831 394 230 1.1 0.0 0.00 0.00 0.0 12.5
12/29/20 60.6 1530 20.8 0744 0.00 - 2.77 3.69 0.9 5.7 1347 ESE | 115 -38.4 3 3 14.0 12.0 17.6 3.5 0.0 816 390 224 1.3 0.0 0.00 0.00 0.0 12.5
12/28/20 56.9 1434 26.6 0739 0.00 - 2.77 3.69 1.2 8.7 1435 WSW | 248 -36.6 3 3 11.3 3.2 17.1 5.8 0.0 799 386 224 0.9 0.0 0.00 0.00 0.0 12.6
12/27/20 52.7 1450 27.6 0727 0.00 0.62 2.77 3.69 1.5 16.4 1520 ESE | 122 -37.4 3 3 9.1 0.3 18.9 9.8 1.5 782 380 224 0.1 0.0 0.00 0.00 0.0 12.6
12/26/20 55.0 1417 29.4 2354 0.13 0.62 2.77 3.69 2.1 16.0 0011 WSW | 244 -32.5 3 3 2.9 0.0 11.8 9.0 0.0 763 370 222 0.5 0.0 0.00 0.00 0.0 12.5
12/25/20 50.4 1017 40.9 0219 0.49 0.49 2.64 3.56 2.3 18.0 2356 WSW | 258 -30.2 3 3 0.0 0.0 4.5 4.5 19.5 751 362 222 0.0 0.0 0.00 0.00 0.0 12.6
12/24/20 60.0 1400 21.3 0356 0.00 - 2.15 3.07 1.8 13.3 1114 SE | 127 -35.1 3 3 9.3 8.6 12.2 2.9 6.0 746 357 204 1.6 0.0 0.00 0.00 0.0 12.5
12/23/20 63.0 1524 18.6 0730 0.00 - 2.15 3.07 0.9 6.4 1339 E | 88 -39.1 3 3 14.6 13.0 17.5 2.9 0.0 734 354 199 1.8 0.0 0.00 0.00 0.0 12.6
12/22/20 58.8 1401 25.0 2358 0.00 - 2.15 3.07 1.2 12.0 0132 N | 349 -35.2 3 3 8.6 4.7 15.3 6.7 0.0 717 351 199 1.2 0.0 0.00 0.00 0.0 12.6
12/21/20 65.2 1411 24.0 0721 0.00 - 2.15 3.07 1.0 12.9 1540 WNW | 286 -34.2 3 3 8.5 7.8 13.4 4.8 6.5 702 345 199 2.3 0.0 0.00 0.00 0.0 12.6
Max 78.2 - 41.6 - 0.70 0.85 2.87 - 7.4 31.4 - - -0.8 100 11 14.6 13.0 19.5 18.3 24.0 - - - 8.8 5.9 6.26 0.00 56.6 12.6
Avg - - - - - 0.40 1.66 - 1.5 - - - -27.8 - - 4.5 2.3 13.2 9.0 6.0 - - - 1.7 0.7 0.42 0.00 - -
Min 45.0 - 18.6 - 0.00 0.07 0.07 - 0.5 3.4 - - -39.1 3 3 0.0 0.0 2.9 2.9 0.0 - - - 0.0 0.0 0.00 0.00 0.0 12.5
Total - - - - - - - - - - - - - - - 134.8 67.8 381.4 270.6 180.0 - - - 50.8 20.4 12.73 0.00 - -

Climate Summary

Scotts Valley

Current Year | Showing 1/1/21 - 1/19/21
as of 1/20/21 6:28 PM PST
Temperature (°F) Precip (in) Days
Month Days Avg Max Avg Min Max Max Min Min Total Daily Min Temp < 28 Daily Min Temp < 32 Daily Max Temp > 90 Daily Max Temp > 100 Daily Rain > 0.01 Daily Rain > 0.1
Jan 2021 19 59.5 33.1 78.2 24.7 1.5 2 10 0 0 10 3

Climate Summary

Scotts Valley

Last Year | Showing 1/1/20 - 12/31/20
as of 1/20/21 6:28 PM PST
Temperature (°F) Precip (in) Days
Month Days Avg Max Avg Min Max Max Min Min Total Daily Min Temp < 28 Daily Min Temp < 32 Daily Max Temp > 90 Daily Max Temp > 100 Daily Rain > 0.01 Daily Rain > 0.1
Jan 2020 31 56.1 31.6 72.9 21.2 2.5 10 20 0 0 13 5
Feb 2020 29 67.8 27.1 77.4 19.7 0 19 26 0 0 0 0
Mar 2020 31 61.3 31.2 80.9 23 1.02 6 21 0 0 8 5
Apr 2020 30 71.3 37.4 87.3 23.8 0.71 2 7 0 0 4 3
May 2020 31 77.8 40.1 96.3 28.4 1.08 0 4 8 0 5 4
Jun 2020 30 86.7 46.2 105.4 31.1 0 0 1 15 3 0 0
Jul 2020 31 94.5 47.6 99.7 39.7 0 0 0 26 0 0 0
Aug 2020 31 95.9 50.9 104.1 40.7 0.09 0 0 28 4 2 0
Sep 2020 30 91.1 44 109.7 35.1 0 0 0 16 4 0 0
Oct 2020 31 87.1 35.9 97.1 26.8 0 3 9 14 0 0 0
Nov 2020 30 65.6 26.5 87.7 15.5 0.84 18 23 0 0 4 2
Dec 2020 31 59.9 26.3 73.5 18.6 2.87 24 27 0 0 8 5
Total 366 - - - - 9.11 82 138 107 11 44 24
Average 30.5 76.2 37.1 - - 0.76 6.8 11.5 8.9 0.9 3.7 2
Maximum 31 95.9 50.9 109.7 - 2.87 24 27 28 4 13 5
Minimum 29 56.1 26.3 - 15.5 0 0 0 0 0 0 0
Calm: 6.2%
Calm: 0.1%